Honolulu, HI

7:20 AM HST on August 28, 2014 (GMT -1000)
Honolulu International | Change Station
CLOSE
Current Station
Airport
Location: Honolulu,
Elevation: 16 ft
Nearby Weather Stations
Active Advisory: High Surf Advisory

Elev 16 ft 21.32 °N, 157.92 °W | Updated 27 minutes ago

Scattered Clouds
Scattered Clouds
75 °F
Feels Like 75 °F
N
4
Wind Variable Wind from North

Today
High -- | Low -- °F
--% Chance of Precip.
Yesterday
High -- | Low -- °F
Precip. -- in
6:13 AM 6:50 PM
Waxing Crescent, 9% visible
Pressure 29.91 in
Visibility 10.0 miles
Clouds Few 2600 ft
Scattered Clouds 3900 ft
Scattered Clouds 4900 ft
Dew Point 67 °F
Humidity 76%
Rainfall 0.00 in
Snow Depth Not available.
UV 0 out of 12
Pollen Not available.
PM2.5 Good
Flu Activity Not available.
METAR PHNL 281653Z 36003KT 10SM FEW026 SCT039 SCT049 24/19 A2991 RMK AO2 SLP128 VCSH NE T02390194

More Conditions Fewer Conditions

Pressure 29.91 in
Visibility 10.0 miles
Clouds Few 2600 ft
Scattered Clouds 3900 ft
Scattered Clouds 4900 ft
Dew Point 67 °F
Humidity 76%
Rainfall 0.00 in
Snow Depth Not available.
UV 0 out of 12
Pollen Not available.
PM2.5 Good
Flu Activity Not available.
METAR PHNL 281653Z 36003KT 10SM FEW026 SCT039 SCT049 24/19 A2991 RMK AO2 SLP128 VCSH NE T02390194

More Conditions Fewer Conditions

10-Day Weather Forecast

Almanac

Astronomy

Aug. 28, 2014 Rise Set
Actual Time 6:13 AM HST 6:50 PM HST
Civil Twilight 5:51 AM HST 7:13 PM HST
Nautical Twilight 5:24 AM HST 7:39 PM HST
Astronomical Twilight 4:57 AM HST 8:06 PM HST
Moon 8:49 AM HST 8:51 PM HST
Length of Visible Light 13h 22m
Length of Day
12h 37m
Tomorrow will be 1m 10s shorter.
Waxing Crescent, 9% of the Moon is Illuminated
Today
Waxing Crescent
Sep 2
First Quarter
Sep 8
Full
Sep 15
Last Quarter
Sep 24
New

Today's Extremes

State Highs State Lows

Community

WunderPhotos

Upload Photos

1,748,017 photos uploaded!

Nearby

Air Quality

  Air Quality AQ Index Pollutant
Yesterday Good
PM10
Current Good
PM2.5
Thursday Good
OZONE

Snow Depth

Station Depth Elevation
No new snow has been reported.

Earthquake Activity

City Distance Mag. Time & Date
No recent earthquake activity has been reported nearby.
Minimum magnitude displayed is 2.5.

Coastal Water Temperatures

Place Temperature
No Stations Reporting

Nearby Weather Stations